sensor_id;sensor_type;location;lat;lon;timestamp;P1;durP1;ratioP1;P2;durP2;ratioP2
29384;SDS011;16367;48.736;9.218;2023-02-08T00:01:51;9.90;;;4.40;;
29384;SDS011;16367;48.736;9.218;2023-02-08T00:03:54;8.65;;;3.83;;
29384;SDS011;16367;48.736;9.218;2023-02-08T00:05:58;9.77;;;4.32;;
29384;SDS011;16367;48.736;9.218;2023-02-08T00:08:00;9.95;;;4.60;;
29384;SDS011;16367;48.736;9.218;2023-02-08T00:10:03;11.75;;;4.30;;
29384;SDS011;16367;48.736;9.218;2023-02-08T00:12:07;11.65;;;4.07;;
29384;SDS011;16367;48.736;9.218;2023-02-08T00:14:09;11.40;;;4.47;;
29384;SDS011;16367;48.736;9.218;2023-02-08T00:16:12;10.60;;;4.57;;
29384;SDS011;16367;48.736;9.218;2023-02-08T00:18:15;13.90;;;4.55;;
29384;SDS011;16367;48.736;9.218;2023-02-08T00:20:18;10.15;;;4.68;;
29384;SDS011;16367;48.736;9.218;2023-02-08T00:22:22;9.70;;;4.85;;
29384;SDS011;16367;48.736;9.218;2023-02-08T00:24:25;8.48;;;4.82;;
29384;SDS011;16367;48.736;9.218;2023-02-08T00:26:27;12.80;;;5.68;;
29384;SDS011;16367;48.736;9.218;2023-02-08T00:28:30;11.35;;;4.90;;
29384;SDS011;16367;48.736;9.218;2023-02-08T00:30:33;9.77;;;5.10;;
29384;SDS011;16367;48.736;9.218;2023-02-08T00:32:36;13.48;;;4.13;;
29384;SDS011;16367;48.736;9.218;2023-02-08T00:34:39;11.93;;;4.35;;
29384;SDS011;16367;48.736;9.218;2023-02-08T00:36:42;10.38;;;3.90;;
29384;SDS011;16367;48.736;9.218;2023-02-08T00:38:46;9.48;;;4.20;;
29384;SDS011;16367;48.736;9.218;2023-02-08T00:40:48;11.13;;;4.43;;
29384;SDS011;16367;48.736;9.218;2023-02-08T00:42:51;11.52;;;4.45;;
29384;SDS011;16367;48.736;9.218;2023-02-08T00:44:54;12.38;;;4.78;;
29384;SDS011;16367;48.736;9.218;2023-02-08T00:46:57;10.18;;;3.95;;
29384;SDS011;16367;48.736;9.218;2023-02-08T00:48:59;14.25;;;4.90;;
29384;SDS011;16367;48.736;9.218;2023-02-08T00:51:03;10.63;;;4.50;;
29384;SDS011;16367;48.736;9.218;2023-02-08T00:53:07;11.13;;;4.60;;
29384;SDS011;16367;48.736;9.218;2023-02-08T00:55:11;13.80;;;4.40;;
29384;SDS011;16367;48.736;9.218;2023-02-08T00:57:14;10.70;;;4.43;;
29384;SDS011;16367;48.736;9.218;2023-02-08T00:59:16;10.23;;;4.15;;
29384;SDS011;16367;48.736;9.218;2023-02-08T01:01:20;10.55;;;4.10;;
29384;SDS011;16367;48.736;9.218;2023-02-08T01:03:23;11.45;;;4.60;;
29384;SDS011;16367;48.736;9.218;2023-02-08T01:05:26;14.70;;;5.05;;
29384;SDS011;16367;48.736;9.218;2023-02-08T01:07:29;10.77;;;4.90;;
29384;SDS011;16367;48.736;9.218;2023-02-08T01:09:32;10.80;;;4.45;;
29384;SDS011;16367;48.736;9.218;2023-02-08T01:11:36;12.60;;;4.78;;
29384;SDS011;16367;48.736;9.218;2023-02-08T01:13:39;11.93;;;4.72;;
29384;SDS011;16367;48.736;9.218;2023-02-08T01:15:43;9.90;;;4.32;;
29384;SDS011;16367;48.736;9.218;2023-02-08T01:17:46;10.75;;;3.85;;
29384;SDS011;16367;48.736;9.218;2023-02-08T01:19:48;10.25;;;4.13;;
29384;SDS011;16367;48.736;9.218;2023-02-08T01:21:51;10.93;;;4.35;;
29384;SDS011;16367;48.736;9.218;2023-02-08T01:23:54;9.52;;;3.97;;
29384;SDS011;16367;48.736;9.218;2023-02-08T01:25:57;12.00;;;4.50;;
29384;SDS011;16367;48.736;9.218;2023-02-08T01:28:01;10.77;;;4.57;;
29384;SDS011;16367;48.736;9.218;2023-02-08T01:30:04;9.75;;;4.43;;
29384;SDS011;16367;48.736;9.218;2023-02-08T01:32:08;12.35;;;4.18;;
29384;SDS011;16367;48.736;9.218;2023-02-08T01:34:10;9.32;;;4.72;;
29384;SDS011;16367;48.736;9.218;2023-02-08T01:36:13;10.45;;;4.00;;
29384;SDS011;16367;48.736;9.218;2023-02-08T01:38:17;10.35;;;4.00;;
29384;SDS011;16367;48.736;9.218;2023-02-08T01:40:19;10.80;;;4.30;;
29384;SDS011;16367;48.736;9.218;2023-02-08T01:42:22;9.20;;;3.83;;
29384;SDS011;16367;48.736;9.218;2023-02-08T01:47:06;9.38;;;3.72;;
29384;SDS011;16367;48.736;9.218;2023-02-08T01:49:10;10.30;;;4.13;;
29384;SDS011;16367;48.736;9.218;2023-02-08T01:51:18;10.20;;;5.32;;
29384;SDS011;16367;48.736;9.218;2023-02-08T01:53:23;12.07;;;4.15;;
29384;SDS011;16367;48.736;9.218;2023-02-08T01:55:29;13.00;;;4.68;;
29384;SDS011;16367;48.736;9.218;2023-02-08T01:57:35;10.52;;;4.45;;
29384;SDS011;16367;48.736;9.218;2023-02-08T01:59:40;9.90;;;4.32;;
29384;SDS011;16367;48.736;9.218;2023-02-08T02:01:46;11.70;;;4.35;;
29384;SDS011;16367;48.736;9.218;2023-02-08T02:03:53;9.63;;;4.53;;
29384;SDS011;16367;48.736;9.218;2023-02-08T02:06:00;10.95;;;4.32;;
29384;SDS011;16367;48.736;9.218;2023-02-08T02:08:09;13.40;;;4.95;;
29384;SDS011;16367;48.736;9.218;2023-02-08T02:10:15;10.15;;;4.38;;
29384;SDS011;16367;48.736;9.218;2023-02-08T02:12:22;12.30;;;4.60;;
29384;SDS011;16367;48.736;9.218;2023-02-08T02:14:25;12.95;;;4.53;;
29384;SDS011;16367;48.736;9.218;2023-02-08T02:16:29;11.15;;;4.20;;
29384;SDS011;16367;48.736;9.218;2023-02-08T02:18:32;11.00;;;4.20;;
29384;SDS011;16367;48.736;9.218;2023-02-08T02:20:39;11.10;;;4.25;;
29384;SDS011;16367;48.736;9.218;2023-02-08T02:23:00;9.88;;;4.28;;
29384;SDS011;16367;48.736;9.218;2023-02-08T02:25:31;11.98;;;5.00;;
29384;SDS011;16367;48.736;9.218;2023-02-08T02:28:03;8.70;;;4.30;;
29384;SDS011;16367;48.736;9.218;2023-02-08T02:30:30;12.95;;;5.18;;
29384;SDS011;16367;48.736;9.218;2023-02-08T02:33:01;10.68;;;4.25;;
29384;SDS011;16367;48.736;9.218;2023-02-08T02:35:14;10.75;;;3.92;;
29384;SDS011;16367;48.736;9.218;2023-02-08T02:37:28;10.95;;;3.78;;
29384;SDS011;16367;48.736;9.218;2023-02-08T02:39:42;11.50;;;4.65;;
29384;SDS011;16367;48.736;9.218;2023-02-08T02:41:52;8.75;;;3.63;;
29384;SDS011;16367;48.736;9.218;2023-02-08T02:44:25;10.90;;;4.45;;
29384;SDS011;16367;48.736;9.218;2023-02-08T02:46:37;9.73;;;3.58;;
29384;SDS011;16367;48.736;9.218;2023-02-08T02:48:46;10.43;;;4.15;;
29384;SDS011;16367;48.736;9.218;2023-02-08T02:50:52;10.55;;;4.93;;
29384;SDS011;16367;48.736;9.218;2023-02-08T02:53:00;11.35;;;4.20;;
29384;SDS011;16367;48.736;9.218;2023-02-08T02:55:09;12.05;;;4.55;;
29384;SDS011;16367;48.736;9.218;2023-02-08T02:57:17;10.00;;;4.05;;
29384;SDS011;16367;48.736;9.218;2023-02-08T02:59:24;12.48;;;4.72;;
29384;SDS011;16367;48.736;9.218;2023-02-08T03:01:28;11.98;;;4.70;;
29384;SDS011;16367;48.736;9.218;2023-02-08T03:03:31;11.80;;;4.35;;
29384;SDS011;16367;48.736;9.218;2023-02-08T03:05:36;11.88;;;4.10;;
29384;SDS011;16367;48.736;9.218;2023-02-08T03:07:43;13.63;;;5.32;;
29384;SDS011;16367;48.736;9.218;2023-02-08T03:10:06;11.38;;;4.15;;
29384;SDS011;16367;48.736;9.218;2023-02-08T03:12:23;10.00;;;4.78;;
29384;SDS011;16367;48.736;9.218;2023-02-08T03:14:37;11.77;;;4.57;;
29384;SDS011;16367;48.736;9.218;2023-02-08T03:16:52;10.70;;;3.83;;
29384;SDS011;16367;48.736;9.218;2023-02-08T03:19:05;10.10;;;4.35;;
29384;SDS011;16367;48.736;9.218;2023-02-08T03:21:15;10.77;;;4.18;;
29384;SDS011;16367;48.736;9.218;2023-02-08T03:23:24;13.25;;;4.55;;
29384;SDS011;16367;48.736;9.218;2023-02-08T03:25:32;12.48;;;4.57;;
29384;SDS011;16367;48.736;9.218;2023-02-08T03:27:39;11.65;;;4.72;;
29384;SDS011;16367;48.736;9.218;2023-02-08T03:29:52;14.95;;;4.90;;
29384;SDS011;16367;48.736;9.218;2023-02-08T03:32:01;11.98;;;5.00;;
29384;SDS011;16367;48.736;9.218;2023-02-08T03:34:09;11.45;;;4.90;;
29384;SDS011;16367;48.736;9.218;2023-02-08T03:36:18;11.02;;;4.47;;
29384;SDS011;16367;48.736;9.218;2023-02-08T03:38:26;11.00;;;4.22;;
29384;SDS011;16367;48.736;9.218;2023-02-08T03:40:40;11.32;;;4.35;;
29384;SDS011;16367;48.736;9.218;2023-02-08T03:42:45;12.13;;;5.22;;
29384;SDS011;16367;48.736;9.218;2023-02-08T03:44:52;9.70;;;4.50;;
29384;SDS011;16367;48.736;9.218;2023-02-08T03:46:58;10.65;;;5.03;;
29384;SDS011;16367;48.736;9.218;2023-02-08T03:49:06;12.00;;;4.85;;
29384;SDS011;16367;48.736;9.218;2023-02-08T03:51:13;11.48;;;4.18;;
29384;SDS011;16367;48.736;9.218;2023-02-08T03:53:19;12.05;;;4.53;;
29384;SDS011;16367;48.736;9.218;2023-02-08T03:55:25;11.80;;;4.68;;
29384;SDS011;16367;48.736;9.218;2023-02-08T03:57:31;13.98;;;4.68;;
29384;SDS011;16367;48.736;9.218;2023-02-08T03:59:38;10.02;;;3.95;;
29384;SDS011;16367;48.736;9.218;2023-02-08T04:01:43;12.40;;;4.88;;
29384;SDS011;16367;48.736;9.218;2023-02-08T04:03:49;13.32;;;5.55;;
29384;SDS011;16367;48.736;9.218;2023-02-08T04:05:54;11.52;;;4.45;;
29384;SDS011;16367;48.736;9.218;2023-02-08T04:07:57;13.82;;;4.70;;
29384;SDS011;16367;48.736;9.218;2023-02-08T04:10:02;11.73;;;4.45;;
29384;SDS011;16367;48.736;9.218;2023-02-08T04:12:05;8.82;;;3.75;;
29384;SDS011;16367;48.736;9.218;2023-02-08T04:14:08;12.55;;;5.38;;
29384;SDS011;16367;48.736;9.218;2023-02-08T04:16:11;11.27;;;4.82;;
29384;SDS011;16367;48.736;9.218;2023-02-08T04:18:14;12.52;;;5.70;;
29384;SDS011;16367;48.736;9.218;2023-02-08T04:20:17;13.77;;;5.03;;
29384;SDS011;16367;48.736;9.218;2023-02-08T04:22:20;12.18;;;5.10;;
29384;SDS011;16367;48.736;9.218;2023-02-08T04:24:22;13.20;;;5.47;;
29384;SDS011;16367;48.736;9.218;2023-02-08T04:26:27;9.95;;;4.60;;
29384;SDS011;16367;48.736;9.218;2023-02-08T04:28:29;11.32;;;4.60;;
29384;SDS011;16367;48.736;9.218;2023-02-08T04:30:32;12.90;;;5.35;;
29384;SDS011;16367;48.736;9.218;2023-02-08T04:32:35;13.32;;;5.47;;
29384;SDS011;16367;48.736;9.218;2023-02-08T04:34:37;14.73;;;5.57;;
29384;SDS011;16367;48.736;9.218;2023-02-08T04:36:40;12.90;;;5.13;;
29384;SDS011;16367;48.736;9.218;2023-02-08T04:38:43;14.68;;;5.45;;
29384;SDS011;16367;48.736;9.218;2023-02-08T04:40:46;11.60;;;4.50;;
29384;SDS011;16367;48.736;9.218;2023-02-08T04:42:50;12.48;;;4.93;;
29384;SDS011;16367;48.736;9.218;2023-02-08T04:44:52;13.50;;;5.25;;
29384;SDS011;16367;48.736;9.218;2023-02-08T04:46:55;13.43;;;5.30;;
29384;SDS011;16367;48.736;9.218;2023-02-08T04:48:58;15.00;;;5.80;;
29384;SDS011;16367;48.736;9.218;2023-02-08T04:51:00;11.70;;;4.72;;
29384;SDS011;16367;48.736;9.218;2023-02-08T04:53:03;14.13;;;4.95;;
29384;SDS011;16367;48.736;9.218;2023-02-08T04:55:06;13.90;;;5.20;;
29384;SDS011;16367;48.736;9.218;2023-02-08T04:57:10;15.40;;;5.60;;
29384;SDS011;16367;48.736;9.218;2023-02-08T04:59:16;12.00;;;5.63;;
29384;SDS011;16367;48.736;9.218;2023-02-08T05:01:19;15.10;;;5.60;;
29384;SDS011;16367;48.736;9.218;2023-02-08T05:03:21;12.57;;;5.00;;
29384;SDS011;16367;48.736;9.218;2023-02-08T05:05:24;14.82;;;5.13;;
29384;SDS011;16367;48.736;9.218;2023-02-08T05:07:27;10.13;;;4.10;;
29384;SDS011;16367;48.736;9.218;2023-02-08T05:09:31;14.70;;;5.57;;
29384;SDS011;16367;48.736;9.218;2023-02-08T05:11:35;15.98;;;5.40;;
29384;SDS011;16367;48.736;9.218;2023-02-08T05:13:38;11.07;;;4.63;;
29384;SDS011;16367;48.736;9.218;2023-02-08T05:15:42;11.27;;;4.90;;
29384;SDS011;16367;48.736;9.218;2023-02-08T05:17:44;11.82;;;4.97;;
29384;SDS011;16367;48.736;9.218;2023-02-08T05:19:47;14.00;;;4.82;;
29384;SDS011;16367;48.736;9.218;2023-02-08T05:21:50;13.80;;;5.15;;
29384;SDS011;16367;48.736;9.218;2023-02-08T05:23:52;14.02;;;5.72;;
29384;SDS011;16367;48.736;9.218;2023-02-08T05:25:55;13.13;;;5.50;;
29384;SDS011;16367;48.736;9.218;2023-02-08T05:27:58;13.85;;;5.68;;
29384;SDS011;16367;48.736;9.218;2023-02-08T05:30:01;13.02;;;5.50;;
29384;SDS011;16367;48.736;9.218;2023-02-08T05:32:05;13.18;;;5.20;;
29384;SDS011;16367;48.736;9.218;2023-02-08T05:34:08;11.73;;;5.10;;
29384;SDS011;16367;48.736;9.218;2023-02-08T05:36:12;13.45;;;4.97;;
29384;SDS011;16367;48.736;9.218;2023-02-08T05:38:15;14.10;;;5.25;;
29384;SDS011;16367;48.736;9.218;2023-02-08T05:40:17;13.82;;;5.38;;
29384;SDS011;16367;48.736;9.218;2023-02-08T05:42:20;11.35;;;5.18;;
29384;SDS011;16367;48.736;9.218;2023-02-08T05:44:23;12.18;;;5.93;;
29384;SDS011;16367;48.736;9.218;2023-02-08T05:46:26;14.35;;;5.60;;
29384;SDS011;16367;48.736;9.218;2023-02-08T05:48:30;10.60;;;5.20;;
29384;SDS011;16367;48.736;9.218;2023-02-08T05:50:33;14.00;;;5.72;;
29384;SDS011;16367;48.736;9.218;2023-02-08T05:52:36;14.40;;;6.00;;
29384;SDS011;16367;48.736;9.218;2023-02-08T05:54:39;13.30;;;4.80;;
29384;SDS011;16367;48.736;9.218;2023-02-08T05:56:41;13.35;;;5.63;;
29384;SDS011;16367;48.736;9.218;2023-02-08T05:58:44;15.50;;;6.03;;
29384;SDS011;16367;48.736;9.218;2023-02-08T06:00:47;14.15;;;6.07;;
29384;SDS011;16367;48.736;9.218;2023-02-08T06:02:50;18.83;;;6.40;;
29384;SDS011;16367;48.736;9.218;2023-02-08T06:04:55;14.73;;;6.10;;
29384;SDS011;16367;48.736;9.218;2023-02-08T06:06:58;15.75;;;5.72;;
29384;SDS011;16367;48.736;9.218;2023-02-08T06:09:00;16.83;;;6.75;;
29384;SDS011;16367;48.736;9.218;2023-02-08T06:11:04;14.90;;;6.68;;
29384;SDS011;16367;48.736;9.218;2023-02-08T06:13:08;15.40;;;6.53;;
29384;SDS011;16367;48.736;9.218;2023-02-08T06:15:11;13.98;;;6.00;;
29384;SDS011;16367;48.736;9.218;2023-02-08T06:17:14;15.52;;;6.30;;
29384;SDS011;16367;48.736;9.218;2023-02-08T06:19:17;15.10;;;6.07;;
29384;SDS011;16367;48.736;9.218;2023-02-08T06:21:21;12.70;;;5.88;;
29384;SDS011;16367;48.736;9.218;2023-02-08T06:23:24;11.85;;;5.47;;
29384;SDS011;16367;48.736;9.218;2023-02-08T06:25:27;14.50;;;6.65;;
29384;SDS011;16367;48.736;9.218;2023-02-08T06:27:30;15.20;;;6.53;;
29384;SDS011;16367;48.736;9.218;2023-02-08T06:29:33;15.95;;;7.25;;
29384;SDS011;16367;48.736;9.218;2023-02-08T06:31:35;18.63;;;6.72;;
29384;SDS011;16367;48.736;9.218;2023-02-08T06:33:38;13.82;;;5.60;;
29384;SDS011;16367;48.736;9.218;2023-02-08T06:35:42;14.63;;;5.32;;
29384;SDS011;16367;48.736;9.218;2023-02-08T06:37:47;14.80;;;6.35;;
29384;SDS011;16367;48.736;9.218;2023-02-08T06:39:50;14.48;;;6.63;;
29384;SDS011;16367;48.736;9.218;2023-02-08T06:41:52;17.98;;;6.75;;
29384;SDS011;16367;48.736;9.218;2023-02-08T06:43:55;17.98;;;7.20;;
29384;SDS011;16367;48.736;9.218;2023-02-08T06:45:59;16.02;;;6.18;;
29384;SDS011;16367;48.736;9.218;2023-02-08T06:48:04;17.80;;;7.18;;
29384;SDS011;16367;48.736;9.218;2023-02-08T06:50:07;19.60;;;7.63;;
29384;SDS011;16367;48.736;9.218;2023-02-08T06:52:11;14.77;;;6.70;;
29384;SDS011;16367;48.736;9.218;2023-02-08T06:54:15;16.13;;;6.57;;
29384;SDS011;16367;48.736;9.218;2023-02-08T06:56:17;18.77;;;8.02;;
29384;SDS011;16367;48.736;9.218;2023-02-08T06:58:20;15.60;;;6.93;;
29384;SDS011;16367;48.736;9.218;2023-02-08T07:00:23;18.80;;;7.05;;
29384;SDS011;16367;48.736;9.218;2023-02-08T07:02:26;21.38;;;6.65;;
29384;SDS011;16367;48.736;9.218;2023-02-08T07:04:28;16.33;;;7.65;;
29384;SDS011;16367;48.736;9.218;2023-02-08T07:06:31;15.63;;;6.40;;
29384;SDS011;16367;48.736;9.218;2023-02-08T07:08:34;18.25;;;6.90;;
29384;SDS011;16367;48.736;9.218;2023-02-08T07:10:38;15.85;;;5.97;;
29384;SDS011;16367;48.736;9.218;2023-02-08T07:12:41;14.38;;;5.75;;
29384;SDS011;16367;48.736;9.218;2023-02-08T07:14:44;16.27;;;6.28;;
29384;SDS011;16367;48.736;9.218;2023-02-08T07:16:47;13.38;;;5.20;;
29384;SDS011;16367;48.736;9.218;2023-02-08T07:18:49;16.15;;;6.40;;
29384;SDS011;16367;48.736;9.218;2023-02-08T07:20:52;18.58;;;5.88;;
29384;SDS011;16367;48.736;9.218;2023-02-08T07:22:55;14.18;;;5.65;;
29384;SDS011;16367;48.736;9.218;2023-02-08T07:24:57;11.77;;;5.25;;
29384;SDS011;16367;48.736;9.218;2023-02-08T07:27:02;17.67;;;6.15;;
29384;SDS011;16367;48.736;9.218;2023-02-08T07:29:05;15.07;;;5.50;;
29384;SDS011;16367;48.736;9.218;2023-02-08T07:31:08;14.45;;;6.20;;
29384;SDS011;16367;48.736;9.218;2023-02-08T07:33:13;11.85;;;5.50;;
29384;SDS011;16367;48.736;9.218;2023-02-08T07:35:16;14.13;;;6.07;;
29384;SDS011;16367;48.736;9.218;2023-02-08T07:37:19;13.18;;;5.55;;
29384;SDS011;16367;48.736;9.218;2023-02-08T07:39:21;17.05;;;6.07;;
29384;SDS011;16367;48.736;9.218;2023-02-08T07:41:24;14.10;;;5.60;;
29384;SDS011;16367;48.736;9.218;2023-02-08T07:43:28;13.80;;;5.65;;
29384;SDS011;16367;48.736;9.218;2023-02-08T07:45:31;12.90;;;5.65;;
29384;SDS011;16367;48.736;9.218;2023-02-08T07:47:34;15.75;;;6.00;;
29384;SDS011;16367;48.736;9.218;2023-02-08T07:49:37;13.40;;;5.40;;
29384;SDS011;16367;48.736;9.218;2023-02-08T07:51:39;15.68;;;5.47;;
29384;SDS011;16367;48.736;9.218;2023-02-08T07:53:42;17.20;;;6.35;;
29384;SDS011;16367;48.736;9.218;2023-02-08T07:55:45;14.70;;;5.68;;
29384;SDS011;16367;48.736;9.218;2023-02-08T07:57:48;14.07;;;5.47;;
29384;SDS011;16367;48.736;9.218;2023-02-08T07:59:52;16.75;;;6.10;;
29384;SDS011;16367;48.736;9.218;2023-02-08T08:01:55;14.85;;;6.40;;
29384;SDS011;16367;48.736;9.218;2023-02-08T08:03:58;13.90;;;5.63;;
29384;SDS011;16367;48.736;9.218;2023-02-08T08:06:01;16.77;;;5.30;;
29384;SDS011;16367;48.736;9.218;2023-02-08T08:08:03;15.77;;;5.30;;
29384;SDS011;16367;48.736;9.218;2023-02-08T08:10:06;12.98;;;6.45;;
29384;SDS011;16367;48.736;9.218;2023-02-08T08:12:09;15.88;;;6.95;;
29384;SDS011;16367;48.736;9.218;2023-02-08T08:14:12;17.05;;;6.00;;
29384;SDS011;16367;48.736;9.218;2023-02-08T08:16:16;13.90;;;6.07;;
29384;SDS011;16367;48.736;9.218;2023-02-08T08:18:19;13.02;;;5.80;;
29384;SDS011;16367;48.736;9.218;2023-02-08T08:20:22;16.77;;;6.13;;
29384;SDS011;16367;48.736;9.218;2023-02-08T08:22:25;12.15;;;5.30;;
29384;SDS011;16367;48.736;9.218;2023-02-08T08:24:27;15.30;;;5.90;;
29384;SDS011;16367;48.736;9.218;2023-02-08T08:26:31;14.00;;;6.03;;
29384;SDS011;16367;48.736;9.218;2023-02-08T08:28:35;13.25;;;5.15;;
29384;SDS011;16367;48.736;9.218;2023-02-08T08:30:41;14.50;;;5.57;;
29384;SDS011;16367;48.736;9.218;2023-02-08T08:32:45;13.90;;;6.38;;
29384;SDS011;16367;48.736;9.218;2023-02-08T08:34:48;17.48;;;7.28;;
29384;SDS011;16367;48.736;9.218;2023-02-08T08:36:51;15.27;;;6.40;;
29384;SDS011;16367;48.736;9.218;2023-02-08T08:38:53;15.32;;;6.43;;
29384;SDS011;16367;48.736;9.218;2023-02-08T08:40:56;16.35;;;6.90;;
29384;SDS011;16367;48.736;9.218;2023-02-08T08:42:59;12.88;;;5.93;;
29384;SDS011;16367;48.736;9.218;2023-02-08T08:45:01;17.35;;;6.85;;
29384;SDS011;16367;48.736;9.218;2023-02-08T08:47:05;15.35;;;6.40;;
29384;SDS011;16367;48.736;9.218;2023-02-08T08:49:08;20.02;;;7.07;;
29384;SDS011;16367;48.736;9.218;2023-02-08T08:51:11;13.68;;;6.25;;
29384;SDS011;16367;48.736;9.218;2023-02-08T08:53:15;17.05;;;6.18;;
29384;SDS011;16367;48.736;9.218;2023-02-08T08:55:17;12.18;;;5.60;;
29384;SDS011;16367;48.736;9.218;2023-02-08T08:57:20;16.08;;;6.90;;
29384;SDS011;16367;48.736;9.218;2023-02-08T08:59:23;16.20;;;6.72;;
29384;SDS011;16367;48.736;9.218;2023-02-08T09:01:26;15.60;;;6.07;;
29384;SDS011;16367;48.736;9.218;2023-02-08T09:03:29;15.63;;;7.03;;
29384;SDS011;16367;48.736;9.218;2023-02-08T09:05:33;15.63;;;6.30;;
29384;SDS011;16367;48.736;9.218;2023-02-08T09:07:36;14.30;;;6.97;;
29384;SDS011;16367;48.736;9.218;2023-02-08T09:09:38;13.60;;;5.57;;
29384;SDS011;16367;48.736;9.218;2023-02-08T09:11:42;14.55;;;5.88;;
29384;SDS011;16367;48.736;9.218;2023-02-08T09:13:44;14.00;;;6.22;;
29384;SDS011;16367;48.736;9.218;2023-02-08T09:15:47;15.57;;;6.13;;
29384;SDS011;16367;48.736;9.218;2023-02-08T09:17:51;14.48;;;6.85;;
29384;SDS011;16367;48.736;9.218;2023-02-08T09:19:53;15.98;;;6.78;;
29384;SDS011;16367;48.736;9.218;2023-02-08T09:21:57;15.35;;;6.38;;
29384;SDS011;16367;48.736;9.218;2023-02-08T09:24:00;14.68;;;5.90;;
29384;SDS011;16367;48.736;9.218;2023-02-08T09:26:03;15.23;;;6.03;;
29384;SDS011;16367;48.736;9.218;2023-02-08T09:28:07;16.00;;;6.70;;
29384;SDS011;16367;48.736;9.218;2023-02-08T09:30:10;14.57;;;6.20;;
29384;SDS011;16367;48.736;9.218;2023-02-08T09:32:13;13.48;;;6.25;;
29384;SDS011;16367;48.736;9.218;2023-02-08T09:34:21;14.80;;;6.78;;
29384;SDS011;16367;48.736;9.218;2023-02-08T09:36:25;15.20;;;7.30;;
29384;SDS011;16367;48.736;9.218;2023-02-08T09:38:30;11.40;;;5.78;;
29384;SDS011;16367;48.736;9.218;2023-02-08T09:40:36;13.18;;;6.22;;
29384;SDS011;16367;48.736;9.218;2023-02-08T09:42:45;13.15;;;6.45;;
29384;SDS011;16367;48.736;9.218;2023-02-08T09:45:01;14.75;;;5.65;;
29384;SDS011;16367;48.736;9.218;2023-02-08T09:47:17;12.40;;;5.90;;
29384;SDS011;16367;48.736;9.218;2023-02-08T09:49:25;15.20;;;6.88;;
29384;SDS011;16367;48.736;9.218;2023-02-08T09:51:31;13.30;;;6.18;;
29384;SDS011;16367;48.736;9.218;2023-02-08T09:53:40;11.80;;;5.80;;
29384;SDS011;16367;48.736;9.218;2023-02-08T09:55:47;15.85;;;6.78;;
29384;SDS011;16367;48.736;9.218;2023-02-08T09:57:53;14.80;;;6.43;;
29384;SDS011;16367;48.736;9.218;2023-02-08T09:59:59;15.27;;;6.65;;
29384;SDS011;16367;48.736;9.218;2023-02-08T10:02:21;15.00;;;6.93;;
29384;SDS011;16367;48.736;9.218;2023-02-08T10:04:28;16.13;;;7.47;;
29384;SDS011;16367;48.736;9.218;2023-02-08T10:06:39;16.27;;;7.43;;
29384;SDS011;16367;48.736;9.218;2023-02-08T10:08:44;14.95;;;6.15;;
29384;SDS011;16367;48.736;9.218;2023-02-08T10:10:50;15.63;;;5.95;;
29384;SDS011;16367;48.736;9.218;2023-02-08T10:12:57;15.18;;;5.95;;
29384;SDS011;16367;48.736;9.218;2023-02-08T10:15:20;16.13;;;6.80;;
29384;SDS011;16367;48.736;9.218;2023-02-08T10:17:37;15.50;;;6.85;;
29384;SDS011;16367;48.736;9.218;2023-02-08T10:19:56;16.30;;;7.25;;
29384;SDS011;16367;48.736;9.218;2023-02-08T10:22:10;14.68;;;6.53;;
29384;SDS011;16367;48.736;9.218;2023-02-08T10:24:32;17.73;;;7.32;;
29384;SDS011;16367;48.736;9.218;2023-02-08T10:26:47;16.10;;;6.72;;
29384;SDS011;16367;48.736;9.218;2023-02-08T10:29:02;17.08;;;7.70;;
29384;SDS011;16367;48.736;9.218;2023-02-08T10:31:22;18.52;;;7.00;;
29384;SDS011;16367;48.736;9.218;2023-02-08T10:33:38;18.90;;;7.85;;
29384;SDS011;16367;48.736;9.218;2023-02-08T10:35:47;18.90;;;6.90;;
29384;SDS011;16367;48.736;9.218;2023-02-08T10:37:51;14.60;;;6.00;;
29384;SDS011;16367;48.736;9.218;2023-02-08T10:39:58;16.73;;;7.03;;
29384;SDS011;16367;48.736;9.218;2023-02-08T10:42:18;17.90;;;7.32;;
29384;SDS011;16367;48.736;9.218;2023-02-08T10:44:23;17.88;;;7.03;;
29384;SDS011;16367;48.736;9.218;2023-02-08T10:46:34;19.08;;;7.53;;
29384;SDS011;16367;48.736;9.218;2023-02-08T10:48:45;17.85;;;7.18;;
29384;SDS011;16367;48.736;9.218;2023-02-08T10:50:54;16.98;;;6.65;;
29384;SDS011;16367;48.736;9.218;2023-02-08T10:52:57;15.55;;;6.70;;
29384;SDS011;16367;48.736;9.218;2023-02-08T10:55:01;16.10;;;7.72;;
29384;SDS011;16367;48.736;9.218;2023-02-08T10:57:14;16.30;;;7.82;;
29384;SDS011;16367;48.736;9.218;2023-02-08T10:59:20;15.65;;;6.82;;
29384;SDS011;16367;48.736;9.218;2023-02-08T11:01:25;16.95;;;6.13;;
29384;SDS011;16367;48.736;9.218;2023-02-08T11:03:29;15.93;;;6.70;;
29384;SDS011;16367;48.736;9.218;2023-02-08T11:05:33;16.52;;;6.78;;
29384;SDS011;16367;48.736;9.218;2023-02-08T11:07:38;16.58;;;7.13;;
29384;SDS011;16367;48.736;9.218;2023-02-08T11:09:41;14.25;;;6.68;;
29384;SDS011;16367;48.736;9.218;2023-02-08T11:11:45;15.25;;;6.95;;
29384;SDS011;16367;48.736;9.218;2023-02-08T11:15:54;16.27;;;6.38;;
29384;SDS011;16367;48.736;9.218;2023-02-08T11:17:59;14.20;;;6.57;;
29384;SDS011;16367;48.736;9.218;2023-02-08T11:20:03;15.68;;;7.63;;
29384;SDS011;16367;48.736;9.218;2023-02-08T11:22:11;14.95;;;6.47;;
29384;SDS011;16367;48.736;9.218;2023-02-08T11:24:21;15.10;;;6.80;;
29384;SDS011;16367;48.736;9.218;2023-02-08T11:26:30;15.25;;;6.72;;
29384;SDS011;16367;48.736;9.218;2023-02-08T11:28:36;15.73;;;6.72;;
29384;SDS011;16367;48.736;9.218;2023-02-08T11:30:39;18.35;;;6.45;;
29384;SDS011;16367;48.736;9.218;2023-02-08T11:32:42;13.98;;;6.00;;
29384;SDS011;16367;48.736;9.218;2023-02-08T11:34:46;13.27;;;5.65;;
29384;SDS011;16367;48.736;9.218;2023-02-08T11:36:49;13.20;;;5.85;;
29384;SDS011;16367;48.736;9.218;2023-02-08T11:38:52;12.13;;;5.63;;
29384;SDS011;16367;48.736;9.218;2023-02-08T11:40:55;13.25;;;6.00;;
29384;SDS011;16367;48.736;9.218;2023-02-08T11:43:00;15.68;;;5.03;;
29384;SDS011;16367;48.736;9.218;2023-02-08T11:45:05;9.43;;;3.55;;
29384;SDS011;16367;48.736;9.218;2023-02-08T11:47:09;10.73;;;4.47;;
29384;SDS011;16367;48.736;9.218;2023-02-08T11:49:22;11.90;;;4.45;;
29384;SDS011;16367;48.736;9.218;2023-02-08T11:51:27;9.48;;;3.47;;
29384;SDS011;16367;48.736;9.218;2023-02-08T11:53:33;10.30;;;3.25;;
29384;SDS011;16367;48.736;9.218;2023-02-08T11:55:37;9.23;;;3.53;;
29384;SDS011;16367;48.736;9.218;2023-02-08T11:57:49;10.25;;;3.67;;
29384;SDS011;16367;48.736;9.218;2023-02-08T12:02:28;8.70;;;3.22;;
29384;SDS011;16367;48.736;9.218;2023-02-08T12:09:09;7.88;;;3.75;;
29384;SDS011;16367;48.736;9.218;2023-02-08T12:11:21;8.63;;;3.35;;
29384;SDS011;16367;48.736;9.218;2023-02-08T12:16:35;7.53;;;3.00;;
29384;SDS011;16367;48.736;9.218;2023-02-08T12:18:53;7.63;;;2.85;;
29384;SDS011;16367;48.736;9.218;2023-02-08T12:21:11;11.43;;;3.90;;
29384;SDS011;16367;48.736;9.218;2023-02-08T12:23:23;7.45;;;3.58;;
29384;SDS011;16367;48.736;9.218;2023-02-08T12:25:36;10.77;;;4.07;;
29384;SDS011;16367;48.736;9.218;2023-02-08T12:27:50;11.40;;;3.67;;
29384;SDS011;16367;48.736;9.218;2023-02-08T12:29:58;7.28;;;2.55;;
29384;SDS011;16367;48.736;9.218;2023-02-08T12:32:14;8.60;;;3.78;;
29384;SDS011;16367;48.736;9.218;2023-02-08T12:34:31;10.63;;;3.88;;
29384;SDS011;16367;48.736;9.218;2023-02-08T12:36:54;7.45;;;3.30;;
29384;SDS011;16367;48.736;9.218;2023-02-08T12:39:27;8.80;;;3.45;;
29384;SDS011;16367;48.736;9.218;2023-02-08T12:41:59;9.30;;;3.88;;
29384;SDS011;16367;48.736;9.218;2023-02-08T12:44:24;9.70;;;4.15;;